Ana Sayfa
METAR-TAF:

METAR-TAF

Havaalanları :

Nakşa, Yunanistan

Enlem: 37-04-47N, Boylam: 025-22-01E, yükseklik: 3 m

Güncel hava durumu gözlemi

Rapor saat 08:50 UTC de 1 saat ve 21 dakika önce yapıldı.
Rüzgar güneydan 10 kt
Sıcaklık 20°C
Nem 83%
Basınç 1013 hPa
Görüş mesafesi 10 km veya daha fazla
1400 ft yükseklikte az bulutlu
2500 ft yükseklikte parçalı bulutlu

METAR: LGNX 190850Z 18010KT 9999 FEW014 SCT025 20/17 Q1013

Saat: 12:11 (10:11 UTC)


TAF: eksik

4.000'den fazla havaalanı için hava durumu gözlemleri ve tahminleri (METAR ve TAF raporları).

Kullanılabilir istasyonlar harita üzerinde sarı ve kırmızı noktalarla gösterilir.

İstasyonun adını görmek için fareyi noktanın üzerinde gezdirin.

Sonrasında hava gözlem ve tahminlerini görmek için tıklayın.

Haritayı değiştirmek için: yaklaştırmak için siyah artı işaretli yeşil düğmeye ve uzaklaştırmak için de eksi işaretli düğmeye hızla tıklayın; bitişik haritalar için yeşil okları kullanın.


METAR-TAF: